createdAt,value
2022-08-09T00:00:11.979Z,47.01
2022-08-09T00:02:42.837Z,46.96
2022-08-09T00:06:17.817Z,46.86
2022-08-09T00:08:04.650Z,46.95
2022-08-09T00:10:40.400Z,47.11
2022-08-09T00:13:16.802Z,46.97
2022-08-09T00:15:59.468Z,47.14
2022-08-09T00:18:31.481Z,47.25
2022-08-09T00:21:07.711Z,46.98
2022-08-09T00:23:57.792Z,47.44
2022-08-09T00:26:30.083Z,47.40
2022-08-09T00:29:03.453Z,47.35
2022-08-09T00:31:59.893Z,47.45
2022-08-09T00:34:26.182Z,47.19
2022-08-09T00:36:53.029Z,47.51
2022-08-09T00:40:08.965Z,47.30
2022-08-09T00:44:19.391Z,47.25
2022-08-09T00:44:53.890Z,47.33
2022-08-09T00:47:21.152Z,47.68
2022-08-09T00:49:54.546Z,47.28
2022-08-09T00:52:30.402Z,47.21
2022-08-09T00:55:01.662Z,47.35
2022-08-09T00:57:34.958Z,47.57
2022-08-09T01:00:21.363Z,47.21
2022-08-09T01:02:54.965Z,47.69
2022-08-09T01:05:51.049Z,47.38
2022-08-09T01:08:28.613Z,47.53
2022-08-09T01:11:14.997Z,47.50
2022-08-09T01:14:01.793Z,47.64
2022-08-09T01:16:40.705Z,47.70
2022-08-09T01:19:43.065Z,47.61
2022-08-09T01:22:27.542Z,47.42
2022-08-09T01:25:19.015Z,47.61
2022-08-09T01:27:52.253Z,47.57
2022-08-09T01:30:35.390Z,47.58
2022-08-09T01:33:10.202Z,47.40
2022-08-09T01:35:46.976Z,47.60
2022-08-09T01:38:23.406Z,47.77
2022-08-09T01:41:05.088Z,47.64
2022-08-09T01:43:41.842Z,47.43
2022-08-09T01:46:24.891Z,47.71
2022-08-09T01:48:56.438Z,47.77
2022-08-09T01:51:26.167Z,47.48
2022-08-09T01:53:57.866Z,47.75
2022-08-09T01:56:27.354Z,47.92
2022-08-09T01:58:56.445Z,47.58
2022-08-09T02:01:57.570Z,47.75
2022-08-09T02:04:13.900Z,47.72
2022-08-09T02:07:02.888Z,47.70
2022-08-09T02:09:42.296Z,47.80
2022-08-09T02:12:17.992Z,48.02
2022-08-09T02:14:51.837Z,47.70
2022-08-09T02:17:59.285Z,47.74
2022-08-09T02:20:11.052Z,47.92
2022-08-09T02:22:51.509Z,47.91
2022-08-09T02:25:25.733Z,47.90
2022-08-09T02:28:09.696Z,47.90
2022-08-09T02:30:43.290Z,48.11
2022-08-09T02:33:18.667Z,47.92
2022-08-09T02:36:02.650Z,47.88
2022-08-09T02:38:35.620Z,48.19
2022-08-09T02:41:08.742Z,48.25
2022-08-09T02:43:42.480Z,48.24
2022-08-09T02:46:27.357Z,48.35
2022-08-09T02:48:56.821Z,48.13
2022-08-09T02:51:26.681Z,48.17
2022-08-09T02:54:01.347Z,48.21
2022-08-09T02:56:30.082Z,48.16
2022-08-09T02:58:57.998Z,48.34
2022-08-09T03:01:29.576Z,48.38
2022-08-09T03:04:19.177Z,48.29
2022-08-09T03:06:48.987Z,48.33
2022-08-09T03:09:17.243Z,48.34
2022-08-09T03:12:09.896Z,48.31
2022-08-09T03:14:32.174Z,48.33
2022-08-09T03:17:02.879Z,48.44
2022-08-09T03:19:59.034Z,48.35
2022-08-09T03:22:25.699Z,48.49
2022-08-09T03:25:05.819Z,48.47
2022-08-09T03:27:50.715Z,48.42
2022-08-09T03:30:29.522Z,48.49
2022-08-09T03:33:17.224Z,48.55
2022-08-09T03:36:13.758Z,48.50
2022-08-09T03:38:42.092Z,48.47
2022-08-09T03:41:15.227Z,48.51
2022-08-09T03:44:02.861Z,48.59
2022-08-09T03:46:34.460Z,48.48
2022-08-09T03:49:04.144Z,48.45
2022-08-09T03:51:54.125Z,48.49
2022-08-09T03:54:32.139Z,48.53
2022-08-09T03:57:12.441Z,48.55
2022-08-09T03:59:54.893Z,48.49
2022-08-09T04:02:27.193Z,48.58
2022-08-09T04:04:59.203Z,48.50
2022-08-09T04:07:33.871Z,48.57
2022-08-09T04:10:20.377Z,48.65
2022-08-09T04:12:51.110Z,48.67
2022-08-09T04:15:38.768Z,48.72
2022-08-09T04:18:07.283Z,48.75
2022-08-09T04:20:34.114Z,48.62
2022-08-09T04:23:00.749Z,48.77
2022-08-09T04:25:29.490Z,48.84
2022-08-09T04:28:02.483Z,48.66
2022-08-09T04:30:30.390Z,48.80
2022-08-09T04:32:57.153Z,48.77
2022-08-09T04:35:23.774Z,48.81
2022-08-09T04:37:50.507Z,48.86
2022-08-09T04:40:19.016Z,48.72
2022-08-09T04:42:55.700Z,48.69
2022-08-09T04:45:23.821Z,48.81
2022-08-09T04:48:00.866Z,48.77
2022-08-09T04:50:31.711Z,48.80
2022-08-09T04:53:00.715Z,48.61
2022-08-09T04:55:27.341Z,48.80
2022-08-09T04:58:09.466Z,48.88
2022-08-09T05:00:36.747Z,48.99
2022-08-09T05:03:30.124Z,48.86
2022-08-09T05:06:06.519Z,48.92
2022-08-09T05:08:35.356Z,48.91
2022-08-09T05:11:06.868Z,48.95
2022-08-09T05:13:38.901Z,48.92
2022-08-09T05:16:07.913Z,48.83
2022-08-09T05:18:50.948Z,48.89
2022-08-09T05:21:24.729Z,49.00
2022-08-09T05:24:01.600Z,48.96
2022-08-09T05:26:45.375Z,48.94
2022-08-09T05:29:22.233Z,48.56
2022-08-09T05:31:57.065Z,48.98
2022-08-09T05:34:30.578Z,49.16
2022-08-09T05:37:05.970Z,49.07
2022-08-09T05:39:36.190Z,49.12
2022-08-09T05:42:17.707Z,49.18
2022-08-09T05:44:50.741Z,49.06
2022-08-09T05:47:22.588Z,49.28
2022-08-09T05:50:32.008Z,49.11
2022-08-09T05:52:42.041Z,49.28
2022-08-09T05:55:18.235Z,49.20
2022-08-09T05:57:51.046Z,49.36
2022-08-09T06:00:25.987Z,49.23
2022-08-09T06:02:54.156Z,49.21
2022-08-09T06:05:30.452Z,49.32
2022-08-09T06:10:02.651Z,49.42
2022-08-09T06:13:12.080Z,49.70
2022-08-09T06:16:20.673Z,49.89
2022-08-09T06:19:23.894Z,50.09
2022-08-09T06:22:29.324Z,49.68
2022-08-09T06:25:31.527Z,49.98
2022-08-09T06:28:36.200Z,49.73
2022-08-09T06:31:40.390Z,49.69
2022-08-09T06:35:00.589Z,49.91
2022-08-09T06:38:06.022Z,50.06
2022-08-09T06:41:18.168Z,49.81
2022-08-09T06:44:21.255Z,50.12
2022-08-09T06:47:23.773Z,49.75
2022-08-09T06:50:25.754Z,49.75
2022-08-09T06:53:33.198Z,49.84
2022-08-09T06:56:40.240Z,49.82
2022-08-09T07:00:52.112Z,49.84
2022-08-09T07:03:09.010Z,50.03
2022-08-09T07:06:12.802Z,50.17
2022-08-09T07:09:55.690Z,50.03
2022-08-09T07:12:41.114Z,50.17
2022-08-09T07:15:53.944Z,50.00
2022-08-09T07:19:06.076Z,50.21
2022-08-09T07:22:10.745Z,50.00
2022-08-09T07:25:13.302Z,50.13
2022-08-09T07:28:19.238Z,49.87
2022-08-09T07:31:27.957Z,49.81
2022-08-09T07:34:31.140Z,49.96
2022-08-09T07:37:43.488Z,49.88
2022-08-09T07:41:08.162Z,49.94
2022-08-09T07:44:07.919Z,49.79
2022-08-09T07:47:13.395Z,49.74
2022-08-09T07:50:18.847Z,49.73
2022-08-09T07:53:36.467Z,49.71
2022-08-09T07:56:58.654Z,49.67
2022-08-09T08:00:02.854Z,49.83
2022-08-09T08:03:08.344Z,49.63
2022-08-09T08:06:10.262Z,49.75
2022-08-09T08:09:35.231Z,49.64
2022-08-09T08:12:43.397Z,49.79
2022-08-09T08:15:46.085Z,49.46
2022-08-09T08:18:51.430Z,49.70
2022-08-09T08:21:53.182Z,49.48
2022-08-09T08:24:57.684Z,49.73
2022-08-09T08:27:59.370Z,49.56
2022-08-09T08:31:08.846Z,49.44
2022-08-09T08:34:16.217Z,49.30
2022-08-09T08:37:22.481Z,49.42
2022-08-09T08:40:27.043Z,49.38
2022-08-09T08:43:32.306Z,49.32
2022-08-09T08:47:02.730Z,48.98
2022-08-09T08:50:04.435Z,48.78
2022-08-09T08:53:11.878Z,49.07
2022-08-09T08:56:25.224Z,48.88
2022-08-09T08:59:44.619Z,48.58
2022-08-09T09:02:53.580Z,48.65
2022-08-09T09:05:58.380Z,48.78
2022-08-09T09:09:06.896Z,48.53
2022-08-09T09:12:29.195Z,48.85
2022-08-09T09:15:30.885Z,48.51
2022-08-09T09:18:32.657Z,48.29
2022-08-09T09:21:43.146Z,48.69
2022-08-09T09:25:39.271Z,48.63
2022-08-09T09:28:39.098Z,48.46
2022-08-09T09:32:03.897Z,48.34
2022-08-09T09:35:16.009Z,48.32
2022-08-09T09:38:36.317Z,48.11
2022-08-09T09:41:49.690Z,48.34
2022-08-09T09:44:59.076Z,48.23
2022-08-09T09:48:04.096Z,47.79
2022-08-09T09:51:07.118Z,47.79
2022-08-09T09:54:21.021Z,47.96
2022-08-09T09:58:00.895Z,47.71
2022-08-09T10:00:52.964Z,47.77
2022-08-09T10:04:00.152Z,47.42
2022-08-09T10:07:10.012Z,47.13
2022-08-09T10:10:12.057Z,47.43
2022-08-09T10:13:13.624Z,46.96
2022-08-09T10:16:58.346Z,47.04
2022-08-09T10:20:00.929Z,46.94
2022-08-09T10:23:19.920Z,46.89
2022-08-09T10:26:24.657Z,46.84
2022-08-09T10:30:22.784Z,46.54
2022-08-09T10:32:49.400Z,46.54
2022-08-09T10:35:53.064Z,46.38
2022-08-09T10:38:59.803Z,46.36
2022-08-09T10:42:02.009Z,46.47
2022-08-09T10:45:11.813Z,46.29
2022-08-09T10:48:30.829Z,45.98
2022-08-09T10:51:53.049Z,45.79
2022-08-09T10:54:54.938Z,45.54
2022-08-09T10:57:59.786Z,45.84
2022-08-09T11:03:05.646Z,45.86
2022-08-09T11:04:31.506Z,45.63
2022-08-09T11:07:57.728Z,45.51
2022-08-09T11:10:57.816Z,45.51
2022-08-09T11:14:32.566Z,45.33
2022-08-09T11:17:41.824Z,45.25
2022-08-09T11:20:49.716Z,44.88
2022-08-09T11:24:04.083Z,44.92
2022-08-09T11:28:08.070Z,45.17
2022-08-09T11:30:54.148Z,44.69
2022-08-09T11:33:58.264Z,44.90
2022-08-09T11:37:00.898Z,44.54
2022-08-09T11:40:06.391Z,44.57
2022-08-09T11:43:08.483Z,43.98
2022-08-09T11:46:11.488Z,44.51
2022-08-09T11:49:17.070Z,44.30
2022-08-09T11:53:03.665Z,43.85
2022-08-09T11:56:02.416Z,44.07
2022-08-09T11:59:07.543Z,43.64
2022-08-09T12:02:34.294Z,44.14
2022-08-09T12:05:39.755Z,43.67
2022-08-09T12:08:53.764Z,43.75
2022-08-09T12:12:04.077Z,43.33
2022-08-09T12:15:48.835Z,43.83
2022-08-09T12:18:53.922Z,43.43
2022-08-09T12:22:01.115Z,43.26
2022-08-09T12:25:16.206Z,43.05
2022-08-09T12:29:10.128Z,42.99
2022-08-09T12:32:02.607Z,42.73
2022-08-09T12:35:12.512Z,43.10
2022-08-09T12:38:38.112Z,42.64
2022-08-09T12:41:40.671Z,42.52
2022-08-09T12:44:46.457Z,42.56
2022-08-09T12:47:53.918Z,42.17
2022-08-09T12:50:56.660Z,42.26
2022-08-09T12:54:01.205Z,42.01
2022-08-09T12:57:03.183Z,42.08
2022-08-09T13:00:19.143Z,42.06
2022-08-09T13:03:58.450Z,42.29
2022-08-09T13:06:56.612Z,42.16
2022-08-09T13:10:02.931Z,41.81
2022-08-09T13:13:09.626Z,41.91
2022-08-09T13:16:15.893Z,41.87
2022-08-09T13:20:09.599Z,41.65
2022-08-09T13:23:04.871Z,41.81
2022-08-09T13:26:43.238Z,41.59
2022-08-09T13:30:04.151Z,41.26
2022-08-09T13:33:23.852Z,41.55
2022-08-09T13:36:42.064Z,41.36
2022-08-09T13:41:55.140Z,41.24
2022-08-09T13:43:09.554Z,41.28
2022-08-09T13:47:16.671Z,40.79
2022-08-09T13:49:39.626Z,41.23
2022-08-09T13:52:57.522Z,41.19
2022-08-09T13:55:59.378Z,40.93
2022-08-09T13:59:00.986Z,40.84
2022-08-09T14:02:04.137Z,41.06
2022-08-09T14:05:06.246Z,40.73
2022-08-09T14:08:10.392Z,40.66
2022-08-09T14:11:16.378Z,40.93
2022-08-09T14:14:24.822Z,40.84
2022-08-09T14:17:32.723Z,41.09
2022-08-09T14:20:51.055Z,40.71
2022-08-09T14:23:57.026Z,40.89
2022-08-09T14:27:00.441Z,40.79
2022-08-09T14:30:35.834Z,40.92
2022-08-09T14:33:24.702Z,40.51
2022-08-09T14:36:28.002Z,40.62
2022-08-09T14:39:47.001Z,40.75
2022-08-09T14:42:50.178Z,40.34
2022-08-09T14:46:57.367Z,40.53
2022-08-09T14:49:16.139Z,40.69
2022-08-09T14:52:17.981Z,40.48
2022-08-09T14:55:20.354Z,40.17
2022-08-09T14:58:22.823Z,40.68
2022-08-09T15:01:24.731Z,40.02
2022-08-09T15:04:27.461Z,40.44
2022-08-09T15:07:29.045Z,40.57
2022-08-09T15:10:37.351Z,40.40
2022-08-09T15:13:55.809Z,39.99
2022-08-09T15:16:58.253Z,40.30
2022-08-09T15:20:02.642Z,40.50
2022-08-09T15:24:01.946Z,40.37
2022-08-09T15:26:31.057Z,40.08
2022-08-09T15:30:56.406Z,40.37
2022-08-09T15:32:55.462Z,40.40
2022-08-09T15:36:02.104Z,40.47
2022-08-09T15:39:04.268Z,40.54
2022-08-09T15:42:06.006Z,40.27
2022-08-09T15:45:10.059Z,40.13
2022-08-09T15:48:28.477Z,40.25
2022-08-09T15:51:44.358Z,40.41
2022-08-09T15:54:52.959Z,40.38
2022-08-09T15:57:54.820Z,40.33
2022-08-09T16:00:56.967Z,39.91
2022-08-09T16:03:58.779Z,39.96
2022-08-09T16:07:01.841Z,40.18
2022-08-09T16:10:06.346Z,40.15
2022-08-09T16:13:18.512Z,40.34
2022-08-09T16:16:26.276Z,40.54
2022-08-09T16:19:30.087Z,40.04
2022-08-09T16:22:42.458Z,40.53
2022-08-09T16:25:50.278Z,40.60
2022-08-09T16:28:52.244Z,40.44
2022-08-09T16:32:19.980Z,40.18
2022-08-09T16:35:57.270Z,40.54
2022-08-09T16:38:42.408Z,40.18
2022-08-09T16:42:03.816Z,40.55
2022-08-09T16:45:07.059Z,40.51
2022-08-09T16:48:40.748Z,39.98
2022-08-09T16:51:31.272Z,40.39
2022-08-09T16:54:36.453Z,40.47
2022-08-09T16:58:09.072Z,40.43
2022-08-09T17:01:05.220Z,40.30
2022-08-09T17:04:08.068Z,40.22
2022-08-09T17:08:43.875Z,40.25
2022-08-09T17:10:31.421Z,40.50
2022-08-09T17:13:34.399Z,40.50
2022-08-09T17:16:38.347Z,40.52
2022-08-09T17:19:46.646Z,40.79
2022-08-09T17:23:03.286Z,40.88
2022-08-09T17:26:06.496Z,40.63
2022-08-09T17:29:11.794Z,40.67
2022-08-09T17:32:26.651Z,40.81
2022-08-09T17:35:41.352Z,40.77
2022-08-09T17:38:57.506Z,40.72
2022-08-09T17:42:01.513Z,40.59
2022-08-09T17:45:06.349Z,40.90
2022-08-09T17:48:08.239Z,40.77
2022-08-09T17:51:18.691Z,40.91
2022-08-09T17:54:25.202Z,40.82
2022-08-09T17:58:02.295Z,40.96
2022-08-09T18:00:51.751Z,40.79
2022-08-09T18:03:56.786Z,40.94
2022-08-09T18:07:04.737Z,40.83
2022-08-09T18:10:10.364Z,40.99
2022-08-09T18:13:42.910Z,40.99
2022-08-09T18:16:34.302Z,40.94
2022-08-09T18:20:55.323Z,41.11
2022-08-09T18:23:04.841Z,40.89
2022-08-09T18:26:07.912Z,41.09
2022-08-09T18:30:38.194Z,41.16
2022-08-09T18:32:32.370Z,41.34
2022-08-09T18:35:58.578Z,41.27
2022-08-09T18:39:01.928Z,41.40
2022-08-09T18:42:08.716Z,41.28
2022-08-09T18:45:21.681Z,41.37
2022-08-09T18:48:33.296Z,41.36
2022-08-09T18:51:38.800Z,41.35
2022-08-09T18:54:56.490Z,41.54
2022-08-09T18:57:59.220Z,41.54
2022-08-09T19:01:00.933Z,41.71
2022-08-09T19:04:08.349Z,41.71
2022-08-09T19:07:10.211Z,41.82
2022-08-09T19:10:17.098Z,41.86
2022-08-09T19:13:23.629Z,41.63
2022-08-09T19:16:42.462Z,41.64
2022-08-09T19:19:51.913Z,41.92
2022-08-09T19:23:02.641Z,41.65
2022-08-09T19:26:08.297Z,41.92
2022-08-09T19:29:18.029Z,42.07
2022-08-09T19:32:26.739Z,41.74
2022-08-09T19:35:58.024Z,42.19
2022-08-09T19:38:55.204Z,41.99
2022-08-09T19:41:57.747Z,42.10
2022-08-09T19:44:59.464Z,42.03
2022-08-09T19:48:01.168Z,42.24
2022-08-09T19:51:05.327Z,42.33
2022-08-09T19:54:08.300Z,42.01
2022-08-09T19:57:11.482Z,42.13
2022-08-09T20:00:13.961Z,41.96
2022-08-09T20:04:23.943Z,41.97
2022-08-09T20:06:37.635Z,42.07
2022-08-09T20:09:44.416Z,42.24
2022-08-09T20:12:47.532Z,42.29
2022-08-09T20:16:34.769Z,42.16
2022-08-09T20:19:42.900Z,41.97
2022-08-09T20:22:35.822Z,42.20
2022-08-09T20:25:52.462Z,42.43
2022-08-09T20:28:54.934Z,42.53
2022-08-09T20:32:30.153Z,42.20
2022-08-09T20:35:18.667Z,42.63
2022-08-09T20:38:33.970Z,42.69
2022-08-09T20:41:42.196Z,42.77
2022-08-09T20:44:50.723Z,42.72
2022-08-09T20:48:02.117Z,42.90
2022-08-09T20:51:04.920Z,42.49
2022-08-09T20:54:07.580Z,42.60
2022-08-09T20:57:14.502Z,42.75
2022-08-09T21:00:31.094Z,42.71
2022-08-09T21:03:39.496Z,42.99
2022-08-09T21:06:55.043Z,42.87
2022-08-09T21:09:58.538Z,43.28
2022-08-09T21:13:00.418Z,43.39
2022-08-09T21:16:02.165Z,43.34
2022-08-09T21:20:17.890Z,43.29
2022-08-09T21:22:38.493Z,43.15
2022-08-09T21:25:59.166Z,43.52
2022-08-09T21:29:01.604Z,43.22
2022-08-09T21:32:15.403Z,43.51
2022-08-09T21:35:21.755Z,43.67
2022-08-09T21:38:31.292Z,43.29
2022-08-09T21:42:05.929Z,43.51
2022-08-09T21:44:56.292Z,43.51
2022-08-09T21:47:58.844Z,43.69
2022-08-09T21:51:00.525Z,44.04
2022-08-09T21:54:02.102Z,44.15
2022-08-09T21:57:03.944Z,44.18
2022-08-09T22:00:15.434Z,44.06
2022-08-09T22:03:25.196Z,44.25
2022-08-09T22:06:27.409Z,44.13
2022-08-09T22:09:29.908Z,44.25
2022-08-09T22:12:33.696Z,43.97
2022-08-09T22:15:35.412Z,44.29
2022-08-09T22:18:44.204Z,44.46
2022-08-09T22:21:56.307Z,44.40
2022-08-09T22:26:06.491Z,44.44
2022-08-09T22:28:21.081Z,44.64
2022-08-09T22:31:34.233Z,44.49
2022-08-09T22:34:40.356Z,44.78
2022-08-09T22:37:42.855Z,44.88
2022-08-09T22:40:49.081Z,44.80
2022-08-09T22:44:02.308Z,45.05
2022-08-09T22:48:14.136Z,45.04
2022-08-09T22:50:28.001Z,45.06
2022-08-09T22:53:44.159Z,45.40
2022-08-09T22:56:56.809Z,45.35
2022-08-09T22:59:59.459Z,45.64
2022-08-09T23:03:01.186Z,45.58
2022-08-09T23:06:03.608Z,45.73
2022-08-09T23:09:06.273Z,45.64
2022-08-09T23:12:08.408Z,45.90
2022-08-09T23:15:10.854Z,45.94
2022-08-09T23:18:12.445Z,45.87
2022-08-09T23:21:15.583Z,45.96
2022-08-09T23:24:28.364Z,46.09
2022-08-09T23:27:29.920Z,46.03
2022-08-09T23:30:31.552Z,46.27
2022-08-09T23:33:33.185Z,46.26
2022-08-09T23:36:35.540Z,46.38
2022-08-09T23:39:37.239Z,46.10
2022-08-09T23:42:38.965Z,46.23
2022-08-09T23:45:42.307Z,46.17
2022-08-09T23:48:43.853Z,46.11
2022-08-09T23:51:45.473Z,46.15
2022-08-09T23:54:47.130Z,46.03
2022-08-09T23:58:06.704Z,46.24
